Time;durP1;ratioP1;P1;durP2;ratioP2;P2;SDS_P1;SDS_P2;PMS_P1;PMS_P2;Temp;Humidity;BMP_temperature;BMP_pressure;BME280_temperature;BME280_humidity;BME280_pressure;Samples;Min_cycle;Max_cycle;Signal;HPM_P1;HPM_P2
2022/12/21 00:00:38;;;;;;;3.40;2.08;;;19.80;99.90;;;;;;4176729;28;20219;-74
2022/12/21 00:02:42;;;;;;;2.38;2.13;;;19.80;99.90;;;;;;4179662;28;20262;-75
2022/12/21 00:04:44;;;;;;;3.17;2.20;;;19.80;99.90;;;;;;4179869;28;20219;-74
2022/12/21 00:06:47;;;;;;;3.17;2.40;;;19.70;99.90;;;;;;4171049;28;20263;-74
2022/12/21 00:08:50;;;;;;;2.17;1.98;;;19.70;99.90;;;;;;4178615;28;20219;-74
2022/12/21 00:10:59;;;;;;;3.25;1.95;;;19.80;99.90;;;;;;4173787;28;20265;-74
2022/12/21 00:13:01;;;;;;;2.80;2.20;;;19.70;99.90;;;;;;4172338;28;20270;-74
2022/12/21 00:15:04;;;;;;;2.38;2.08;;;19.70;99.90;;;;;;4175498;28;20588;-74
2022/12/21 00:17:06;;;;;;;2.90;2.03;;;19.70;99.90;;;;;;4179710;28;20988;-74
2022/12/21 00:19:14;;;;;;;2.50;2.30;;;19.70;99.90;;;;;;4179152;28;20267;-74
2022/12/21 00:21:18;;;;;;;3.35;2.25;;;19.70;99.90;;;;;;4174651;28;20212;-74
2022/12/21 00:23:20;;;;;;;3.13;2.08;;;19.70;99.90;;;;;;4174826;28;20278;-74
2022/12/21 00:25:22;;;;;;;2.53;1.90;;;19.70;99.90;;;;;;4178617;28;20216;-74
2022/12/21 00:27:25;;;;;;;2.08;1.88;;;19.70;99.90;;;;;;4177012;28;20270;-74
2022/12/21 00:29:27;;;;;;;2.97;2.10;;;19.70;99.90;;;;;;4177443;28;20212;-74
2022/12/21 00:31:32;;;;;;;2.25;2.05;;;19.70;99.90;;;;;;4178568;28;20216;-74
2022/12/21 00:33:34;;;;;;;2.85;2.20;;;19.70;99.90;;;;;;4179004;28;20235;-74
2022/12/21 00:35:38;;;;;;;2.80;1.95;;;19.60;99.90;;;;;;4170811;28;20270;-74
2022/12/21 00:37:40;;;;;;;2.67;1.92;;;19.70;99.90;;;;;;4179907;28;20211;-74
2022/12/21 00:39:43;;;;;;;2.80;2.20;;;19.70;99.90;;;;;;4177577;28;20236;-74
2022/12/21 00:41:46;;;;;;;2.53;2.15;;;19.60;99.90;;;;;;4178339;28;20216;-74
2022/12/21 00:43:50;;;;;;;2.65;1.90;;;19.60;99.90;;;;;;4176425;28;20261;-74
2022/12/21 00:45:52;;;;;;;2.92;2.20;;;19.70;99.90;;;;;;4178895;28;20265;-74
2022/12/21 00:47:55;;;;;;;3.60;2.60;;;19.70;99.90;;;;;;4176050;28;20317;-74
2022/12/21 00:49:57;;;;;;;2.30;2.10;;;19.60;99.90;;;;;;4178483;28;20288;-74
2022/12/21 00:52:01;;;;;;;2.80;2.50;;;19.60;99.90;;;;;;4173126;28;20209;-74
2022/12/21 00:54:04;;;;;;;2.15;1.95;;;19.60;99.90;;;;;;4171931;28;20265;-74
2022/12/21 00:56:09;;;;;;;3.25;2.47;;;19.60;99.90;;;;;;4175173;28;20622;-74
2022/12/21 00:58:11;;;;;;;2.72;2.20;;;19.60;99.90;;;;;;4177355;28;20215;-74
2022/12/21 01:00:14;;;;;;;2.72;2.45;;;19.60;99.90;;;;;;4164677;28;20236;-75
2022/12/21 01:02:17;;;;;;;3.10;2.42;;;19.60;99.90;;;;;;4172308;28;20266;-74
2022/12/21 01:04:21;;;;;;;2.97;2.30;;;19.60;99.90;;;;;;4176387;28;20262;-74
2022/12/21 01:06:25;;;;;;;2.75;1.98;;;19.60;99.90;;;;;;4174342;28;20261;-74
2022/12/21 01:08:29;;;;;;;2.42;2.22;;;19.60;99.90;;;;;;4178846;28;20289;-75
2022/12/21 01:10:32;;;;;;;2.67;2.30;;;19.60;99.90;;;;;;4179128;28;20269;-74
2022/12/21 01:12:34;;;;;;;2.92;2.08;;;19.60;99.90;;;;;;4178888;28;20215;-74
2022/12/21 01:14:36;;;;;;;3.75;2.30;;;19.60;99.90;;;;;;4177680;28;20212;-74
2022/12/21 01:16:39;;;;;;;2.75;2.38;;;19.50;99.90;;;;;;4175582;28;20258;-75
2022/12/21 01:18:42;;;;;;;4.28;2.42;;;19.60;99.90;;;;;;4172196;28;20216;-74
2022/12/21 01:20:46;;;;;;;2.83;2.28;;;19.60;99.90;;;;;;4170096;28;20646;-74
2022/12/21 01:22:48;;;;;;;3.00;2.47;;;19.60;99.90;;;;;;4177491;28;20220;-74
2022/12/21 01:24:52;;;;;;;2.97;2.10;;;19.60;99.90;;;;;;4178550;28;20636;-74
2022/12/21 01:26:54;;;;;;;3.08;2.40;;;19.50;99.90;;;;;;4178255;28;20266;-74
2022/12/21 01:28:57;;;;;;;3.20;2.38;;;19.60;99.90;;;;;;4178861;28;20277;-74
2022/12/21 01:31:01;;;;;;;2.10;1.90;;;19.50;99.90;;;;;;4168251;28;20220;-74
2022/12/21 01:33:04;;;;;;;3.30;2.10;;;19.50;99.90;;;;;;4172812;28;20286;-74
2022/12/21 01:35:07;;;;;;;2.30;2.05;;;19.50;99.90;;;;;;4179153;28;20216;-74
2022/12/21 01:37:09;;;;;;;4.18;1.90;;;19.50;99.90;;;;;;4178556;28;20231;-75
2022/12/21 01:39:11;;;;;;;2.40;2.20;;;19.50;99.90;;;;;;4173555;28;20216;-75
2022/12/21 01:41:17;;;;;;;2.42;2.05;;;19.50;99.90;;;;;;4178560;28;20235;-75
2022/12/21 01:43:41;;;;;;;2.55;2.00;;;19.50;99.90;;;;;;4178434;28;20241;-75
2022/12/21 01:45:44;;;;;;;2.63;2.30;;;19.50;99.90;;;;;;4178185;28;20262;-75
2022/12/21 01:47:49;;;;;;;2.47;1.98;;;19.50;99.90;;;;;;4178454;28;20223;-75
2022/12/21 01:49:57;;;;;;;3.20;2.60;;;19.50;99.90;;;;;;4175767;28;20697;-75
2022/12/21 01:52:03;;;;;;;2.70;2.13;;;19.50;99.90;;;;;;4178219;28;20664;-75
2022/12/21 01:54:11;;;;;;;2.55;2.08;;;19.40;99.90;;;;;;4178686;28;20273;-75
2022/12/21 01:56:20;;;;;;;2.72;2.22;;;19.40;99.90;;;;;;4172677;28;20211;-74
2022/12/21 01:58:27;;;;;;;2.47;2.20;;;19.40;99.90;;;;;;4177477;28;20269;-76
2022/12/21 02:00:29;;;;;;;3.83;2.45;;;19.50;99.90;;;;;;4177986;28;20300;-75
2022/12/21 02:02:34;;;;;;;3.45;2.35;;;19.40;99.90;;;;;;4173374;28;20216;-75
2022/12/21 02:04:37;;;;;;;2.40;2.20;;;19.40;99.90;;;;;;4170134;28;20211;-75
2022/12/21 02:06:45;;;;;;;3.58;2.45;;;19.40;99.90;;;;;;4172826;28;20291;-75
2022/12/21 02:08:49;;;;;;;3.25;2.28;;;19.40;99.90;;;;;;4173705;28;20231;-75
2022/12/21 02:10:53;;;;;;;2.55;2.15;;;19.40;99.90;;;;;;4174528;28;20270;-75
2022/12/21 02:13:02;;;;;;;3.33;2.33;;;19.40;99.90;;;;;;4178123;28;20219;-75
2022/12/21 02:15:05;;;;;;;2.70;2.40;;;19.40;99.90;;;;;;4167690;28;20219;-76
2022/12/21 02:17:14;;;;;;;3.58;2.08;;;19.40;99.90;;;;;;4178105;28;20219;-75
2022/12/21 02:20:06;;;;;;;3.25;2.30;;;19.40;99.90;;;;;;4178157;28;20215;-76
2022/12/21 02:22:18;;;;;;;2.80;2.05;;;19.40;99.90;;;;;;4174979;28;20249;-75
2022/12/21 02:24:45;;;;;;;2.33;1.92;;;19.40;99.90;;;;;;4172355;28;20282;-75
2022/12/21 02:27:31;;;;;;;2.45;1.98;;;19.40;99.90;;;;;;4174787;28;20257;-76
2022/12/21 02:30:11;;;;;;;2.70;2.40;;;19.30;99.90;;;;;;4132608;28;20262;-75
2022/12/21 02:32:23;;;;;;;3.25;2.35;;;19.30;99.90;;;;;;4178008;28;20258;-75
2022/12/21 02:34:34;;;;;;;3.13;2.30;;;19.30;99.90;;;;;;4173135;28;20311;-75
2022/12/21 02:36:46;;;;;;;3.42;2.25;;;19.30;99.90;;;;;;4177334;28;20618;-75
2022/12/21 02:38:57;;;;;;;2.92;2.60;;;19.30;99.90;;;;;;4173577;28;20216;-75
2022/12/21 02:41:08;;;;;;;2.65;2.05;;;19.30;99.90;;;;;;4169503;28;20355;-75
2022/12/21 02:45:47;;;;;;;2.95;2.05;;;19.30;99.90;;;;;;4175390;28;20196;-75
2022/12/21 02:47:55;;;;;;;2.78;2.05;;;19.30;99.90;;;;;;4177785;28;20242;-76
2022/12/21 02:50:03;;;;;;;2.38;1.92;;;19.30;99.90;;;;;;4176545;28;20667;-75
2022/12/21 02:52:11;;;;;;;3.67;2.53;;;19.30;99.90;;;;;;4181331;28;20219;-75
2022/12/21 02:54:15;;;;;;;2.97;2.10;;;19.30;99.90;;;;;;4181239;28;20219;-75
2022/12/21 02:56:19;;;;;;;2.15;1.90;;;19.30;99.90;;;;;;4179428;28;20216;-75
2022/12/21 02:58:23;;;;;;;3.00;2.58;;;19.30;99.90;;;;;;4173366;28;20680;-76
2022/12/21 03:00:26;;;;;;;2.30;2.10;;;19.30;99.90;;;;;;4180681;28;20220;-75
2022/12/21 03:05:42;;;;;;;2.67;1.95;;;19.30;99.90;;;;;;4180988;28;20287;-75
2022/12/21 03:07:53;;;;;;;2.38;2.15;;;19.20;99.90;;;;;;4175966;28;20212;-75
2022/12/21 03:10:02;;;;;;;3.00;2.25;;;19.20;99.90;;;;;;4177406;28;20212;-75
2022/12/21 03:12:14;;;;;;;2.78;2.13;;;19.30;99.90;;;;;;4177586;28;20266;-76
2022/12/21 03:14:27;;;;;;;2.78;2.30;;;19.20;99.90;;;;;;4177446;28;20266;-76
2022/12/21 03:16:39;;;;;;;4.15;2.05;;;19.20;99.90;;;;;;4179244;28;20265;-75
2022/12/21 03:18:53;;;;;;;3.13;2.10;;;19.20;99.90;;;;;;4179176;28;20269;-76
2022/12/21 03:21:05;;;;;;;2.88;2.17;;;19.20;99.90;;;;;;4178821;28;20231;-75
2022/12/21 03:23:15;;;;;;;2.55;2.22;;;19.20;99.90;;;;;;4178753;28;20277;-75
2022/12/21 03:25:23;;;;;;;2.80;2.20;;;19.20;99.90;;;;;;4177312;28;20269;-75
2022/12/21 03:27:29;;;;;;;3.10;2.35;;;19.20;99.90;;;;;;4178636;28;20344;-75
2022/12/21 03:29:35;;;;;;;2.67;2.00;;;19.20;99.90;;;;;;4177585;28;20219;-75
2022/12/21 03:31:41;;;;;;;3.33;2.60;;;19.20;99.90;;;;;;4178983;28;20207;-75
2022/12/21 03:33:48;;;;;;;3.92;2.10;;;19.20;99.90;;;;;;4177838;28;20232;-75
2022/12/21 03:35:55;;;;;;;4.22;2.10;;;19.10;99.90;;;;;;4177965;28;20216;-76
2022/12/21 03:38:02;;;;;;;3.17;2.25;;;19.20;99.90;;;;;;4178521;28;20220;-75
2022/12/21 03:40:10;;;;;;;2.65;1.98;;;19.20;99.90;;;;;;4177258;28;20223;-75
2022/12/21 03:42:19;;;;;;;2.72;1.98;;;19.20;99.90;;;;;;4179333;28;20243;-76
2022/12/21 03:44:34;;;;;;;2.55;1.90;;;19.10;99.90;;;;;;4178245;28;20622;-75
2022/12/21 03:46:41;;;;;;;3.55;2.30;;;19.20;99.90;;;;;;4176059;28;20348;-75
2022/12/21 03:48:50;;;;;;;2.33;1.90;;;19.10;99.90;;;;;;4173713;28;20220;-75
2022/12/21 03:50:58;;;;;;;3.67;2.17;;;19.10;99.90;;;;;;4173606;28;20288;-75
2022/12/21 03:53:09;;;;;;;2.45;1.95;;;19.10;99.90;;;;;;4175198;28;20219;-75
2022/12/21 03:55:15;;;;;;;2.53;2.13;;;19.10;99.90;;;;;;4176695;28;20711;-75
2022/12/21 03:57:19;;;;;;;2.63;2.00;;;19.10;99.90;;;;;;4173015;28;20216;-75
2022/12/21 03:59:21;;;;;;;2.55;1.77;;;19.10;99.90;;;;;;4176821;28;20242;-76
2022/12/21 04:01:32;;;;;;;2.78;2.20;;;19.10;99.90;;;;;;4178012;28;20244;-75
2022/12/21 04:03:39;;;;;;;3.05;2.05;;;19.20;99.90;;;;;;4175064;28;20211;-75
2022/12/21 04:05:47;;;;;;;2.08;1.75;;;19.10;99.90;;;;;;4176746;28;20216;-76
2022/12/21 04:07:51;;;;;;;3.28;2.08;;;19.10;99.90;;;;;;4176595;28;20219;-76
2022/12/21 04:10:00;;;;;;;2.67;2.00;;;19.10;99.90;;;;;;4179018;28;20277;-75
2022/12/21 04:14:22;;;;;;;2.70;2.30;;;19.10;99.90;;;;;;4178837;28;20203;-76
2022/12/21 04:16:23;;;;;;;2.20;1.83;;;19.10;99.90;;;;;;4178433;28;20258;-76
2022/12/21 04:20:42;;;;;;;3.00;1.85;;;19.10;99.90;;;;;;4144034;28;20292;-75
2022/12/21 04:29:45;;;;;;;2.60;1.77;;;19.00;99.90;;;;;;4176769;28;20688;-76
2022/12/21 04:31:48;;;;;;;2.47;1.92;;;19.10;99.90;;;;;;4177109;28;20269;-76
2022/12/21 04:33:50;;;;;;;2.22;1.90;;;19.00;99.90;;;;;;4176731;28;20243;-75
2022/12/21 04:38:12;;;;;;;2.45;1.85;;;19.00;99.90;;;;;;4173343;28;20208;-76
2022/12/21 04:40:16;;;;;;;2.75;2.20;;;19.10;99.90;;;;;;4174713;28;20266;-76
2022/12/21 04:42:19;;;;;;;2.05;1.85;;;19.00;99.90;;;;;;4176395;28;20240;-76
2022/12/21 04:44:21;;;;;;;2.38;2.08;;;19.00;99.90;;;;;;4176641;28;20220;-76
2022/12/21 04:46:23;;;;;;;3.10;2.00;;;19.00;99.90;;;;;;4175322;28;20227;-75
2022/12/21 04:48:26;;;;;;;2.55;1.88;;;19.00;99.90;;;;;;4177467;28;20258;-75
2022/12/21 04:50:28;;;;;;;2.55;2.00;;;19.00;99.90;;;;;;4177616;28;20216;-75
2022/12/21 04:52:32;;;;;;;3.15;2.10;;;19.00;99.90;;;;;;4178319;28;20212;-76
2022/12/21 04:54:34;;;;;;;2.47;1.73;;;19.00;99.90;;;;;;4176634;28;20219;-75
2022/12/21 04:56:38;;;;;;;2.80;1.98;;;19.10;99.90;;;;;;4176782;28;20269;-76
2022/12/21 04:58:41;;;;;;;3.08;1.85;;;19.00;99.90;;;;;;4176699;28;20223;-76
2022/12/21 05:00:44;;;;;;;2.95;1.77;;;19.00;99.90;;;;;;4177353;28;20277;-75
2022/12/21 05:02:46;;;;;;;2.33;1.98;;;19.00;99.90;;;;;;4177524;28;20236;-75
2022/12/21 05:04:48;;;;;;;3.03;1.90;;;19.00;99.90;;;;;;4177987;28;20986;-75
2022/12/21 05:06:51;;;;;;;2.38;1.83;;;19.00;99.90;;;;;;4177634;28;20212;-76
2022/12/21 05:08:53;;;;;;;2.78;1.80;;;19.00;99.90;;;;;;4176665;28;20672;-75
2022/12/21 05:10:55;;;;;;;2.63;1.83;;;19.00;99.90;;;;;;4175820;28;20608;-75
2022/12/21 05:12:59;;;;;;;2.78;1.95;;;19.00;99.90;;;;;;4175584;28;20294;-75
2022/12/21 05:15:02;;;;;;;2.95;1.60;;;19.00;99.90;;;;;;4172367;28;20258;-76
2022/12/21 05:17:04;;;;;;;2.15;1.70;;;19.00;99.90;;;;;;4176377;28;20262;-75
2022/12/21 05:19:06;;;;;;;2.33;1.65;;;19.00;99.90;;;;;;4176808;28;20216;-76
2022/12/21 05:21:09;;;;;;;3.78;1.83;;;18.90;99.90;;;;;;4176975;28;20270;-75
2022/12/21 05:23:12;;;;;;;2.30;1.60;;;18.90;99.90;;;;;;4177400;28;20290;-76
2022/12/21 05:25:15;;;;;;;2.63;2.08;;;18.90;99.90;;;;;;4176587;28;20292;-76
2022/12/21 05:27:17;;;;;;;3.22;1.80;;;18.90;99.90;;;;;;4175388;28;20215;-76
2022/12/21 05:29:21;;;;;;;2.05;1.52;;;19.00;99.90;;;;;;4175865;28;20270;-76
2022/12/21 05:31:24;;;;;;;2.38;1.55;;;18.90;99.90;;;;;;4176996;28;20556;-76
2022/12/21 05:33:26;;;;;;;2.38;1.95;;;18.90;99.90;;;;;;4173877;28;20782;-75
2022/12/21 05:35:28;;;;;;;2.55;2.03;;;18.90;99.90;;;;;;4176226;28;20285;-76
2022/12/21 05:37:31;;;;;;;1.80;1.48;;;18.90;99.90;;;;;;4176402;28;20720;-76
2022/12/21 05:39:33;;;;;;;2.10;1.70;;;19.00;99.90;;;;;;4171674;28;20267;-76
2022/12/21 05:41:36;;;;;;;2.53;1.65;;;18.90;99.90;;;;;;4174098;28;20220;-75
2022/12/21 05:43:38;;;;;;;2.35;1.63;;;18.90;99.90;;;;;;4176073;28;20212;-76
2022/12/21 05:45:42;;;;;;;1.75;1.65;;;18.90;99.90;;;;;;4170722;28;20262;-76
2022/12/21 05:47:46;;;;;;;2.78;1.80;;;18.90;99.90;;;;;;4174840;28;20701;-75
2022/12/21 05:49:48;;;;;;;2.35;1.77;;;18.90;99.90;;;;;;4176322;28;20215;-76
2022/12/21 05:51:51;;;;;;;1.95;1.75;;;18.90;99.90;;;;;;4176555;28;20208;-76
2022/12/21 05:53:54;;;;;;;3.40;2.22;;;18.90;99.90;;;;;;4175742;28;20277;-76
2022/12/21 05:55:56;;;;;;;2.08;1.88;;;18.90;99.90;;;;;;4173781;28;20266;-76
2022/12/21 05:57:59;;;;;;;2.65;1.90;;;18.90;99.90;;;;;;4173088;28;20224;-76
2022/12/21 06:00:02;;;;;;;1.90;1.70;;;19.00;99.90;;;;;;4175794;28;20676;-75
2022/12/21 06:02:05;;;;;;;3.10;1.90;;;19.00;99.90;;;;;;4174612;28;20282;-75
2022/12/21 06:04:08;;;;;;;4.32;1.92;;;19.00;99.90;;;;;;4175319;28;20212;-76
2022/12/21 06:06:11;;;;;;;2.30;1.50;;;19.00;99.90;;;;;;4175720;28;20622;-76
2022/12/21 06:08:14;;;;;;;2.25;2.00;;;19.00;99.90;;;;;;4176802;28;20231;-76
2022/12/21 06:10:16;;;;;;;1.88;1.65;;;19.10;99.90;;;;;;4174809;28;20261;-76
2022/12/21 06:12:19;;;;;;;2.72;1.63;;;19.10;99.90;;;;;;4172917;28;20205;-75
2022/12/21 06:14:21;;;;;;;3.45;1.73;;;19.20;99.90;;;;;;4172028;28;20215;-75
2022/12/21 06:16:25;;;;;;;2.50;1.50;;;19.20;99.90;;;;;;4176835;28;20281;-76
2022/12/21 06:18:29;;;;;;;2.75;1.65;;;19.20;99.90;;;;;;4178807;28;20216;-76
2022/12/21 06:20:32;;;;;;;2.03;1.20;;;19.30;99.90;;;;;;4176814;28;20269;-76
2022/12/21 06:22:35;;;;;;;2.42;1.52;;;19.30;99.90;;;;;;4179447;28;20239;-75
2022/12/21 06:24:37;;;;;;;2.67;1.70;;;19.20;99.90;;;;;;4180415;28;20258;-75
2022/12/21 06:26:39;;;;;;;2.33;1.40;;;19.30;99.90;;;;;;4178147;28;20223;-75
2022/12/21 06:28:42;;;;;;;2.60;1.52;;;19.30;99.90;;;;;;4179886;28;20605;-75
2022/12/21 06:30:45;;;;;;;2.13;1.70;;;19.30;99.90;;;;;;4180578;28;20265;-75
2022/12/21 06:32:47;;;;;;;2.38;1.77;;;19.30;99.90;;;;;;4177367;28;20216;-75
2022/12/21 06:34:51;;;;;;;2.15;1.60;;;19.40;99.90;;;;;;4179958;28;20550;-75
2022/12/21 06:36:53;;;;;;;2.22;1.40;;;19.40;99.90;;;;;;4176571;28;20208;-75
2022/12/21 06:38:57;;;;;;;2.15;1.30;;;19.40;99.90;;;;;;4180037;28;20219;-75
2022/12/21 06:41:01;;;;;;;1.95;1.65;;;19.40;99.90;;;;;;4178744;28;20737;-76
2022/12/21 06:43:04;;;;;;;2.20;1.55;;;19.40;99.90;;;;;;4178416;28;20285;-75
2022/12/21 06:45:07;;;;;;;2.35;1.50;;;19.50;99.90;;;;;;4178835;28;20270;-75
2022/12/21 06:47:10;;;;;;;1.58;1.45;;;19.50;99.90;;;;;;4175821;28;20227;-75
2022/12/21 06:49:12;;;;;;;2.05;1.55;;;19.50;99.90;;;;;;4180138;28;20990;-75
2022/12/21 06:51:19;;;;;;;2.10;1.60;;;19.50;99.90;;;;;;4180133;28;20246;-75
2022/12/21 06:53:21;;;;;;;2.50;1.70;;;19.60;99.90;;;;;;4177174;28;20261;-75
2022/12/21 06:55:24;;;;;;;2.38;1.45;;;19.50;99.90;;;;;;4177383;28;20219;-75
2022/12/21 06:57:26;;;;;;;2.55;1.58;;;19.60;99.90;;;;;;4180012;28;20273;-75
2022/12/21 06:59:30;;;;;;;1.70;1.40;;;19.60;99.90;;;;;;4179355;28;20645;-75
2022/12/21 07:01:34;;;;;;;1.85;1.65;;;19.60;99.90;;;;;;4177695;28;20208;-75
2022/12/21 07:03:37;;;;;;;2.58;1.52;;;19.60;99.90;;;;;;4178767;28;20227;-75
2022/12/21 07:05:39;;;;;;;1.60;1.33;;;19.60;99.90;;;;;;4178395;28;20211;-75
2022/12/21 07:07:43;;;;;;;2.08;1.67;;;19.70;99.90;;;;;;4177736;28;20219;-75
2022/12/21 07:09:45;;;;;;;2.33;1.40;;;19.70;99.90;;;;;;4177117;28;20212;-75
2022/12/21 07:11:51;;;;;;;2.17;1.48;;;19.70;99.90;;;;;;4177454;28;20260;-75
2022/12/21 07:13:54;;;;;;;1.60;1.35;;;19.70;99.90;;;;;;4176240;28;20242;-75
2022/12/21 07:15:57;;;;;;;2.63;1.50;;;19.70;99.90;;;;;;4178531;28;20216;-75
2022/12/21 07:17:59;;;;;;;1.55;1.23;;;19.80;99.90;;;;;;4178876;28;20212;-76
2022/12/21 07:20:02;;;;;;;1.67;1.48;;;19.80;99.90;;;;;;4179551;28;20216;-75
2022/12/21 07:22:04;;;;;;;2.42;1.58;;;19.80;99.90;;;;;;4180015;28;20277;-75
2022/12/21 07:24:09;;;;;;;3.03;1.77;;;19.80;99.90;;;;;;4179519;28;20266;-75
2022/12/21 07:26:13;;;;;;;2.15;1.45;;;19.80;99.90;;;;;;4176019;28;20211;-76
2022/12/21 07:28:16;;;;;;;2.55;1.48;;;19.80;99.90;;;;;;4178736;28;20211;-76
2022/12/21 07:30:18;;;;;;;1.63;1.23;;;19.80;99.90;;;;;;4174337;28;20298;-75
2022/12/21 07:32:21;;;;;;;1.70;1.40;;;19.90;99.90;;;;;;4174367;28;20726;-75
2022/12/21 07:34:23;;;;;;;2.17;1.50;;;19.90;99.90;;;;;;4175857;28;20250;-75
2022/12/21 07:36:25;;;;;;;1.85;1.48;;;19.90;99.90;;;;;;4178344;28;20224;-75
2022/12/21 07:38:30;;;;;;;2.05;1.38;;;19.90;99.90;;;;;;4178533;28;20203;-75
2022/12/21 07:40:34;;;;;;;1.50;1.40;;;19.90;99.90;;;;;;4177602;28;20276;-76
2022/12/21 07:42:36;;;;;;;2.55;1.80;;;20.00;99.90;;;;;;4178748;28;20269;-75
2022/12/21 07:44:39;;;;;;;2.55;1.60;;;20.00;99.90;;;;;;4175058;28;20685;-76
2022/12/21 07:46:41;;;;;;;2.20;1.50;;;20.00;99.90;;;;;;4178776;28;20208;-77
2022/12/21 07:48:44;;;;;;;3.03;1.85;;;20.00;99.90;;;;;;4175360;28;20223;-76
2022/12/21 07:50:47;;;;;;;3.35;1.70;;;19.90;99.90;;;;;;4175719;28;20220;-75
2022/12/21 07:52:50;;;;;;;5.50;1.80;;;20.00;99.90;;;;;;4170585;28;20289;-75
2022/12/21 07:54:53;;;;;;;6.22;2.05;;;19.90;99.90;;;;;;4173346;28;20266;-74
2022/12/21 07:56:57;;;;;;;6.82;1.70;;;19.90;99.90;;;;;;4169330;28;20251;-75
2022/12/21 07:59:00;;;;;;;3.25;1.80;;;20.00;99.90;;;;;;4172120;28;20219;-75
2022/12/21 08:01:06;;;;;;;6.72;2.22;;;20.10;99.90;;;;;;4169486;28;20220;-76
2022/12/21 08:03:09;;;;;;;4.00;1.90;;;20.10;99.90;;;;;;4173185;28;20220;-76
2022/12/21 08:05:12;;;;;;;1.80;1.52;;;20.20;99.90;;;;;;4167549;28;20668;-76
2022/12/21 08:07:14;;;;;;;2.88;1.75;;;20.20;99.90;;;;;;4177123;28;20215;-76
2022/12/21 08:09:17;;;;;;;4.25;2.10;;;20.30;99.90;;;;;;4170288;28;20232;-77
2022/12/21 08:11:20;;;;;;;3.42;2.10;;;20.30;99.90;;;;;;4170892;28;20266;-75
2022/12/21 08:13:27;;;;;;;3.88;2.13;;;20.20;99.90;;;;;;4173693;28;20262;-74
2022/12/21 08:15:29;;;;;;;3.03;1.70;;;20.30;99.90;;;;;;4169009;28;20220;-74
2022/12/21 08:17:31;;;;;;;3.60;1.75;;;20.30;99.90;;;;;;4174540;28;20617;-75
2022/12/21 08:19:34;;;;;;;4.30;1.85;;;20.30;99.90;;;;;;4167732;28;22326;-75
2022/12/21 08:21:37;;;;;;;3.92;2.10;;;20.30;99.90;;;;;;4168052;28;20251;-77
2022/12/21 08:23:40;;;;;;;3.33;2.00;;;20.30;99.90;;;;;;4167452;28;20632;-76
2022/12/21 08:25:44;;;;;;;2.42;1.73;;;20.10;99.90;;;;;;4170067;28;20216;-75
2022/12/21 08:27:46;;;;;;;6.32;2.20;;;20.20;99.90;;;;;;4173713;28;20270;-73
2022/12/21 08:29:50;;;;;;;2.80;2.00;;;20.30;99.90;;;;;;4173525;28;20285;-74
2022/12/21 08:31:52;;;;;;;3.38;1.50;;;20.40;99.90;;;;;;4174919;28;20234;-75
2022/12/21 08:33:55;;;;;;;5.28;1.98;;;20.50;99.90;;;;;;4173747;28;20232;-74
2022/12/21 08:35:57;;;;;;;5.55;2.35;;;20.50;99.90;;;;;;4174303;28;20273;-73
2022/12/21 08:38:00;;;;;;;2.97;1.80;;;20.50;99.90;;;;;;4176251;28;20727;-74
2022/12/21 08:40:02;;;;;;;4.10;1.75;;;20.50;99.90;;;;;;4175716;28;20224;-74
2022/12/21 08:42:05;;;;;;;3.22;1.75;;;20.50;99.90;;;;;;4177227;28;20216;-74
2022/12/21 08:44:08;;;;;;;3.80;1.80;;;20.50;99.90;;;;;;4170262;28;20231;-74
2022/12/21 08:46:13;;;;;;;3.28;1.70;;;20.60;99.90;;;;;;4174354;28;20212;-75
2022/12/21 08:48:15;;;;;;;3.20;1.63;;;20.50;99.90;;;;;;4173476;28;20224;-74
2022/12/21 08:50:17;;;;;;;3.65;1.63;;;20.60;99.90;;;;;;4175197;28;20219;-75
2022/12/21 08:52:20;;;;;;;3.08;1.85;;;20.60;99.90;;;;;;4173203;28;20269;-77
2022/12/21 08:54:22;;;;;;;3.47;1.90;;;20.60;99.90;;;;;;4175267;28;20672;-78
2022/12/21 08:56:25;;;;;;;2.53;1.70;;;20.60;99.90;;;;;;4172075;28;20220;-77
2022/12/21 08:58:28;;;;;;;5.50;1.98;;;20.70;99.90;;;;;;4166338;28;20285;-77
2022/12/21 09:00:38;;;;;;;2.22;1.83;;;20.70;99.90;;;;;;4173520;28;20273;-75
2022/12/21 09:02:42;;;;;;;5.00;2.00;;;20.70;99.90;;;;;;4173389;28;20671;-74
2022/12/21 09:04:44;;;;;;;5.97;1.88;;;20.80;99.90;;;;;;4169955;28;20228;-74
2022/12/21 09:06:46;;;;;;;3.92;1.50;;;20.80;99.90;;;;;;4171264;28;20219;-74
2022/12/21 09:08:49;;;;;;;3.35;1.80;;;20.80;99.90;;;;;;4171420;28;20216;-74
2022/12/21 09:10:59;;;;;;;7.30;2.10;;;20.80;99.90;;;;;;4172041;28;20985;-75
2022/12/21 09:13:02;;;;;;;3.53;1.80;;;20.70;99.90;;;;;;4170680;28;20216;-74
2022/12/21 09:15:05;;;;;;;5.60;1.80;;;20.70;99.90;;;;;;4170532;28;20622;-76
2022/12/21 09:17:07;;;;;;;6.97;1.98;;;20.60;99.90;;;;;;4169719;28;20676;-73
2022/12/21 09:19:11;;;;;;;3.58;1.70;;;20.70;99.90;;;;;;4167246;28;20273;-75
2022/12/21 09:21:15;;;;;;;9.38;4.13;;;20.70;99.90;;;;;;4173092;28;20220;-75
2022/12/21 09:23:18;;;;;;;12.00;5.10;;;20.50;99.90;;;;;;4172683;28;20212;-76
2022/12/21 09:25:20;;;;;;;11.25;5.05;;;20.10;99.90;;;;;;4171013;28;20377;-76
2022/12/21 09:27:22;;;;;;;17.80;6.65;;;19.80;99.90;;;;;;4168944;28;20220;-71
2022/12/21 09:29:25;;;;;;;17.30;7.18;;;19.50;99.90;;;;;;4171040;28;20207;-76
2022/12/21 09:31:27;;;;;;;38.83;8.40;;;19.20;99.90;;;;;;4171002;28;20306;-73
2022/12/21 09:33:29;;;;;;;20.23;7.25;;;18.90;99.90;;;;;;4167948;28;20298;-71
2022/12/21 09:35:36;;;;;;;18.25;5.75;;;19.00;99.90;;;;;;4172008;28;20663;-71
2022/12/21 09:37:39;;;;;;;12.95;5.20;;;19.10;99.90;;;;;;4164790;28;20219;-72
2022/12/21 09:39:41;;;;;;;18.30;5.57;;;19.40;99.90;;;;;;4170310;28;20287;-70
2022/12/21 09:42:00;;;;;;;16.50;5.10;;;19.60;99.90;;;;;;4168897;28;20243;-74
2022/12/21 09:44:26;;;;;;;13.52;4.45;;;19.70;99.90;;;;;;4165253;28;21239;-74
2022/12/21 09:46:37;;;;;;;11.45;4.22;;;19.70;99.90;;;;;;4160584;28;20618;-76
2022/12/21 09:48:44;;;;;;;7.07;3.70;;;19.90;99.90;;;;;;4169370;28;20234;-76
2022/12/21 09:50:52;;;;;;;15.80;4.25;;;20.00;99.90;;;;;;4168989;28;20246;-72
2022/12/21 09:53:00;;;;;;;9.57;3.75;;;20.20;99.90;;;;;;4171304;28;20237;-79
2022/12/21 09:55:06;;;;;;;9.48;3.33;;;20.30;99.90;;;;;;4172468;28;20272;-72
2022/12/21 09:57:13;;;;;;;12.82;3.20;;;20.40;99.90;;;;;;4168953;28;20220;-70
2022/12/21 09:59:21;;;;;;;9.88;3.70;;;20.40;99.90;;;;;;4166458;28;20207;-75
2022/12/21 10:01:37;;;;;;;10.40;3.40;;;20.50;99.90;;;;;;4170077;28;20215;-73
2022/12/21 10:04:03;;;;;;;10.63;3.10;;;20.50;99.90;;;;;;4174573;28;20215;-70
2022/12/21 10:06:24;;;;;;;8.80;2.88;;;20.50;99.90;;;;;;4160922;28;20266;-72
2022/12/21 10:09:01;;;;;;;8.20;3.05;;;20.60;99.90;;;;;;4173454;28;20978;-72
2022/12/21 10:11:14;;;;;;;9.52;2.70;;;20.60;99.90;;;;;;4169545;28;20956;-72
2022/12/21 10:13:27;;;;;;;10.25;2.88;;;20.70;99.90;;;;;;4167088;28;20220;-72
2022/12/21 10:15:35;;;;;;;6.97;2.60;;;20.70;99.90;;;;;;4170698;28;20215;-71
2022/12/21 10:17:50;;;;;;;9.35;2.78;;;20.70;99.90;;;;;;4169460;28;20218;-72
2022/12/21 10:20:03;;;;;;;10.13;3.10;;;20.80;99.90;;;;;;4173335;28;20212;-71
2022/12/21 10:22:13;;;;;;;5.15;2.60;;;20.80;99.90;;;;;;4169814;28;20270;-76
2022/12/21 10:24:23;;;;;;;7.70;2.75;;;20.80;99.90;;;;;;4172839;28;20258;-72
2022/12/21 10:26:27;;;;;;;5.20;2.28;;;20.90;99.90;;;;;;4171533;28;20269;-75
2022/12/21 10:28:45;;;;;;;7.15;2.67;;;21.00;99.90;;;;;;4169677;28;20257;-73
2022/12/21 10:30:53;;;;;;;6.82;2.50;;;21.00;99.90;;;;;;4171595;28;20220;-73
2022/12/21 10:32:57;;;;;;;7.93;2.90;;;21.00;99.90;;;;;;4167476;28;20258;-71
2022/12/21 10:35:16;;;;;;;5.55;2.25;;;20.90;99.90;;;;;;4170249;28;20220;-72
2022/12/21 10:37:22;;;;;;;6.80;2.67;;;21.00;99.90;;;;;;4174229;28;20203;-72
2022/12/21 10:39:24;;;;;;;5.97;2.50;;;21.00;99.90;;;;;;4169466;28;20226;-71
2022/12/21 10:41:32;;;;;;;6.00;2.47;;;21.00;99.90;;;;;;4170066;28;20238;-71
2022/12/21 10:43:39;;;;;;;4.32;2.22;;;21.00;99.90;;;;;;4170794;28;20219;-71
2022/12/21 10:45:41;;;;;;;8.50;2.50;;;21.10;99.90;;;;;;4169362;28;20240;-76
2022/12/21 10:47:44;;;;;;;8.55;2.70;;;21.10;99.90;;;;;;4172199;28;20212;-76
2022/12/21 10:49:54;;;;;;;8.70;2.80;;;21.00;99.90;;;;;;4168497;28;20204;-77
2022/12/21 10:51:56;;;;;;;3.38;1.75;;;21.10;99.90;;;;;;4169110;28;20277;-77
2022/12/21 10:54:03;;;;;;;4.10;2.03;;;21.10;99.90;;;;;;4171908;28;20300;-76
2022/12/21 10:56:06;;;;;;;7.03;2.97;;;21.10;99.90;;;;;;4170885;28;20661;-76
2022/12/21 10:58:17;;;;;;;8.65;2.75;;;21.10;99.90;;;;;;4171963;28;20270;-75
2022/12/21 11:00:24;;;;;;;5.32;2.38;;;21.20;99.90;;;;;;4163042;28;20273;-75
2022/12/21 11:02:36;;;;;;;7.20;2.50;;;21.30;99.90;;;;;;4163632;28;20330;-75
2022/12/21 11:04:38;;;;;;;4.07;2.08;;;21.30;99.90;;;;;;4162153;28;20431;-75
2022/12/21 11:06:54;;;;;;;6.30;2.30;;;21.20;99.90;;;;;;4175341;28;20606;-75
2022/12/21 11:08:57;;;;;;;4.30;2.40;;;21.20;99.90;;;;;;4170804;28;20220;-75
2022/12/21 11:11:05;;;;;;;7.60;2.22;;;21.20;99.90;;;;;;4170444;28;20224;-75